LFEW weather

Saulieu Liernais Airfield
Burgundy, France

Public forecast

Using degrees Celsius for public forecast. Weather courtesy of forecast.io.

METAR (pilot weather report)

Closest report is Dijon-Bourgogne Airport, 33.6 nm (62.3 km) E. Retrieved 2019/07/17 19:30 UTC (9 minutes ago):

LFSD 171930Z AUTO 36006KT CAVOK 25/07 Q1013

TAF (pilot weather forecast)

Forecast is more than 12 hours old.

Closest forecast is Dijon-Bourgogne Airport, 33.6 nm (62.3 km) E. Retrieved 2015/06/01 00:11 UTC (4 years ago):

TAF LFSD 010600Z 0100/0124 CNL